sensor_id;sensor_type;location;lat;lon;timestamp;P1;durP1;ratioP1;P2;durP2;ratioP2
74293;SDS011;64044;59.904;10.738;2024-03-29T00:00:57;1.65;;;1.55;;
74293;SDS011;64044;59.904;10.738;2024-03-29T00:03:25;1.92;;;1.65;;
74293;SDS011;64044;59.904;10.738;2024-03-29T00:05:50;3.42;;;1.83;;
74293;SDS011;64044;59.904;10.738;2024-03-29T00:08:16;2.05;;;1.85;;
74293;SDS011;64044;59.904;10.738;2024-03-29T00:10:42;2.78;;;1.45;;
74293;SDS011;64044;59.904;10.738;2024-03-29T00:13:07;1.77;;;1.50;;
74293;SDS011;64044;59.904;10.738;2024-03-29T00:15:33;2.13;;;1.67;;
74293;SDS011;64044;59.904;10.738;2024-03-29T00:17:59;1.90;;;1.70;;
74293;SDS011;64044;59.904;10.738;2024-03-29T00:20:25;2.33;;;1.65;;
74293;SDS011;64044;59.904;10.738;2024-03-29T00:22:50;2.78;;;1.88;;
74293;SDS011;64044;59.904;10.738;2024-03-29T00:25:16;2.35;;;2.00;;
74293;SDS011;64044;59.904;10.738;2024-03-29T00:27:42;1.60;;;1.48;;
74293;SDS011;64044;59.904;10.738;2024-03-29T00:30:09;2.80;;;1.50;;
74293;SDS011;64044;59.904;10.738;2024-03-29T00:32:35;2.20;;;1.77;;
74293;SDS011;64044;59.904;10.738;2024-03-29T00:35:01;1.90;;;1.60;;
74293;SDS011;64044;59.904;10.738;2024-03-29T00:37:27;1.52;;;1.40;;
74293;SDS011;64044;59.904;10.738;2024-03-29T00:39:53;1.98;;;1.58;;
74293;SDS011;64044;59.904;10.738;2024-03-29T00:42:19;1.63;;;1.50;;
74293;SDS011;64044;59.904;10.738;2024-03-29T00:44:46;1.60;;;1.13;;
74293;SDS011;64044;59.904;10.738;2024-03-29T00:47:12;1.77;;;1.23;;
74293;SDS011;64044;59.904;10.738;2024-03-29T00:49:41;1.00;;;1.00;;
74293;SDS011;64044;59.904;10.738;2024-03-29T00:52:06;1.13;;;1.00;;
74293;SDS011;64044;59.904;10.738;2024-03-29T00:54:32;1.40;;;1.20;;
74293;SDS011;64044;59.904;10.738;2024-03-29T00:56:58;1.52;;;1.17;;
74293;SDS011;64044;59.904;10.738;2024-03-29T00:59:24;1.95;;;1.02;;
74293;SDS011;64044;59.904;10.738;2024-03-29T01:01:50;1.15;;;1.05;;
74293;SDS011;64044;59.904;10.738;2024-03-29T01:04:16;2.15;;;1.25;;
74293;SDS011;64044;59.904;10.738;2024-03-29T01:06:42;1.35;;;0.93;;
74293;SDS011;64044;59.904;10.738;2024-03-29T01:09:08;1.40;;;1.08;;
74293;SDS011;64044;59.904;10.738;2024-03-29T01:11:38;1.60;;;1.05;;
74293;SDS011;64044;59.904;10.738;2024-03-29T01:14:04;1.80;;;1.10;;
74293;SDS011;64044;59.904;10.738;2024-03-29T01:16:30;1.17;;;1.08;;
74293;SDS011;64044;59.904;10.738;2024-03-29T01:18:57;1.20;;;1.10;;
74293;SDS011;64044;59.904;10.738;2024-03-29T01:21:23;0.90;;;0.90;;
74293;SDS011;64044;59.904;10.738;2024-03-29T01:23:49;0.80;;;0.80;;
74293;SDS011;64044;59.904;10.738;2024-03-29T01:26:15;1.02;;;0.90;;
74293;SDS011;64044;59.904;10.738;2024-03-29T01:28:42;1.08;;;0.73;;
74293;SDS011;64044;59.904;10.738;2024-03-29T01:31:11;0.98;;;0.85;;
74293;SDS011;64044;59.904;10.738;2024-03-29T01:33:39;1.42;;;0.82;;
74293;SDS011;64044;59.904;10.738;2024-03-29T01:36:08;1.25;;;0.93;;
74293;SDS011;64044;59.904;10.738;2024-03-29T01:38:34;1.10;;;0.90;;
74293;SDS011;64044;59.904;10.738;2024-03-29T01:41:00;2.40;;;0.77;;
74293;SDS011;64044;59.904;10.738;2024-03-29T01:43:26;1.52;;;0.65;;
74293;SDS011;64044;59.904;10.738;2024-03-29T01:45:55;0.73;;;0.73;;
74293;SDS011;64044;59.904;10.738;2024-03-29T01:48:21;0.60;;;0.60;;
74293;SDS011;64044;59.904;10.738;2024-03-29T01:50:49;1.33;;;0.57;;
74293;SDS011;64044;59.904;10.738;2024-03-29T01:53:16;1.65;;;0.80;;
74293;SDS011;64044;59.904;10.738;2024-03-29T01:55:44;0.65;;;0.65;;
74293;SDS011;64044;59.904;10.738;2024-03-29T01:58:10;0.70;;;0.70;;
74293;SDS011;64044;59.904;10.738;2024-03-29T02:00:38;0.55;;;0.50;;
74293;SDS011;64044;59.904;10.738;2024-03-29T02:03:07;1.20;;;0.60;;
74293;SDS011;64044;59.904;10.738;2024-03-29T02:05:41;1.17;;;0.60;;
74293;SDS011;64044;59.904;10.738;2024-03-29T02:08:08;0.60;;;0.60;;
74293;SDS011;64044;59.904;10.738;2024-03-29T02:10:36;1.45;;;0.80;;
74293;SDS011;64044;59.904;10.738;2024-03-29T02:13:03;0.63;;;0.63;;
74293;SDS011;64044;59.904;10.738;2024-03-29T02:15:29;0.60;;;0.60;;
74293;SDS011;64044;59.904;10.738;2024-03-29T02:17:56;0.60;;;0.60;;
74293;SDS011;64044;59.904;10.738;2024-03-29T02:20:22;0.57;;;0.57;;
74293;SDS011;64044;59.904;10.738;2024-03-29T02:25:17;0.52;;;0.52;;
74293;SDS011;64044;59.904;10.738;2024-03-29T02:27:43;0.50;;;0.50;;
74293;SDS011;64044;59.904;10.738;2024-03-29T02:30:13;2.65;;;0.90;;
74293;SDS011;64044;59.904;10.738;2024-03-29T02:32:45;1.10;;;1.00;;
74293;SDS011;64044;59.904;10.738;2024-03-29T02:35:11;5.47;;;1.50;;
74293;SDS011;64044;59.904;10.738;2024-03-29T02:37:37;3.97;;;1.50;;
74293;SDS011;64044;59.904;10.738;2024-03-29T02:40:03;2.95;;;1.70;;
74293;SDS011;64044;59.904;10.738;2024-03-29T02:42:30;6.18;;;1.80;;
74293;SDS011;64044;59.904;10.738;2024-03-29T02:44:55;6.03;;;1.77;;
74293;SDS011;64044;59.904;10.738;2024-03-29T02:47:21;4.60;;;1.65;;
74293;SDS011;64044;59.904;10.738;2024-03-29T02:49:48;4.82;;;2.28;;
74293;SDS011;64044;59.904;10.738;2024-03-29T02:52:13;4.13;;;1.80;;
74293;SDS011;64044;59.904;10.738;2024-03-29T02:54:40;3.20;;;1.80;;
74293;SDS011;64044;59.904;10.738;2024-03-29T02:57:06;5.82;;;2.33;;
74293;SDS011;64044;59.904;10.738;2024-03-29T02:59:32;5.80;;;1.92;;
74293;SDS011;64044;59.904;10.738;2024-03-29T03:01:57;6.20;;;1.90;;
74293;SDS011;64044;59.904;10.738;2024-03-29T03:04:23;7.70;;;2.10;;
74293;SDS011;64044;59.904;10.738;2024-03-29T03:06:49;6.05;;;2.03;;
74293;SDS011;64044;59.904;10.738;2024-03-29T03:09:14;9.70;;;2.53;;
74293;SDS011;64044;59.904;10.738;2024-03-29T03:11:59;9.63;;;2.55;;
74293;SDS011;64044;59.904;10.738;2024-03-29T03:14:24;6.85;;;2.30;;
74293;SDS011;64044;59.904;10.738;2024-03-29T03:16:50;3.85;;;1.80;;
74293;SDS011;64044;59.904;10.738;2024-03-29T03:19:16;7.45;;;2.20;;
74293;SDS011;64044;59.904;10.738;2024-03-29T03:21:42;5.82;;;1.98;;
74293;SDS011;64044;59.904;10.738;2024-03-29T03:24:07;5.55;;;1.88;;
74293;SDS011;64044;59.904;10.738;2024-03-29T03:26:34;7.93;;;1.70;;
74293;SDS011;64044;59.904;10.738;2024-03-29T03:31:51;7.93;;;2.33;;
74293;SDS011;64044;59.904;10.738;2024-03-29T03:34:17;5.80;;;2.20;;
74293;SDS011;64044;59.904;10.738;2024-03-29T03:36:43;6.30;;;2.20;;
74293;SDS011;64044;59.904;10.738;2024-03-29T03:39:08;6.68;;;1.90;;
74293;SDS011;64044;59.904;10.738;2024-03-29T03:41:34;6.78;;;2.10;;
74293;SDS011;64044;59.904;10.738;2024-03-29T03:44:00;4.57;;;1.90;;
74293;SDS011;64044;59.904;10.738;2024-03-29T03:46:25;4.13;;;2.17;;
74293;SDS011;64044;59.904;10.738;2024-03-29T03:48:51;5.72;;;1.70;;
74293;SDS011;64044;59.904;10.738;2024-03-29T03:51:17;4.80;;;1.85;;
74293;SDS011;64044;59.904;10.738;2024-03-29T03:53:42;3.03;;;1.63;;
74293;SDS011;64044;59.904;10.738;2024-03-29T03:56:08;4.03;;;1.58;;
74293;SDS011;64044;59.904;10.738;2024-03-29T03:58:34;3.42;;;1.75;;
74293;SDS011;64044;59.904;10.738;2024-03-29T04:01:05;7.07;;;2.13;;
74293;SDS011;64044;59.904;10.738;2024-03-29T04:03:31;4.25;;;1.65;;
74293;SDS011;64044;59.904;10.738;2024-03-29T04:05:57;4.22;;;1.80;;
74293;SDS011;64044;59.904;10.738;2024-03-29T04:08:22;4.35;;;1.70;;
74293;SDS011;64044;59.904;10.738;2024-03-29T04:10:48;7.35;;;2.15;;
74293;SDS011;64044;59.904;10.738;2024-03-29T04:13:14;5.03;;;1.98;;
74293;SDS011;64044;59.904;10.738;2024-03-29T04:15:40;5.63;;;1.75;;
74293;SDS011;64044;59.904;10.738;2024-03-29T04:18:06;2.30;;;1.38;;
74293;SDS011;64044;59.904;10.738;2024-03-29T04:20:31;8.27;;;2.28;;
74293;SDS011;64044;59.904;10.738;2024-03-29T04:22:57;3.67;;;1.50;;
74293;SDS011;64044;59.904;10.738;2024-03-29T04:25:23;6.07;;;1.48;;
74293;SDS011;64044;59.904;10.738;2024-03-29T04:27:48;6.53;;;1.48;;
74293;SDS011;64044;59.904;10.738;2024-03-29T04:30:14;5.85;;;1.73;;
74293;SDS011;64044;59.904;10.738;2024-03-29T04:32:40;4.00;;;1.13;;
74293;SDS011;64044;59.904;10.738;2024-03-29T04:35:06;4.30;;;1.40;;
74293;SDS011;64044;59.904;10.738;2024-03-29T04:37:32;1.90;;;1.05;;
74293;SDS011;64044;59.904;10.738;2024-03-29T04:39:57;4.93;;;1.20;;
74293;SDS011;64044;59.904;10.738;2024-03-29T04:42:23;5.03;;;1.25;;
74293;SDS011;64044;59.904;10.738;2024-03-29T04:44:49;4.03;;;1.33;;
74293;SDS011;64044;59.904;10.738;2024-03-29T04:47:14;6.85;;;1.50;;
74293;SDS011;64044;59.904;10.738;2024-03-29T04:49:40;5.32;;;1.70;;
74293;SDS011;64044;59.904;10.738;2024-03-29T04:52:06;3.47;;;1.40;;
74293;SDS011;64044;59.904;10.738;2024-03-29T04:54:32;4.00;;;1.02;;
74293;SDS011;64044;59.904;10.738;2024-03-29T04:56:59;3.28;;;1.17;;
74293;SDS011;64044;59.904;10.738;2024-03-29T04:59:31;3.95;;;1.08;;
74293;SDS011;64044;59.904;10.738;2024-03-29T05:01:58;2.13;;;1.00;;
74293;SDS011;64044;59.904;10.738;2024-03-29T05:04:24;2.30;;;1.15;;
74293;SDS011;64044;59.904;10.738;2024-03-29T05:06:53;2.25;;;0.88;;
74293;SDS011;64044;59.904;10.738;2024-03-29T05:09:20;2.63;;;0.80;;
74293;SDS011;64044;59.904;10.738;2024-03-29T05:11:46;4.43;;;1.00;;
74293;SDS011;64044;59.904;10.738;2024-03-29T05:14:21;5.25;;;1.05;;
74293;SDS011;64044;59.904;10.738;2024-03-29T05:16:47;3.17;;;1.20;;
74293;SDS011;64044;59.904;10.738;2024-03-29T05:19:14;3.97;;;1.20;;
74293;SDS011;64044;59.904;10.738;2024-03-29T05:21:40;3.00;;;1.10;;
74293;SDS011;64044;59.904;10.738;2024-03-29T05:24:07;4.03;;;1.30;;
74293;SDS011;64044;59.904;10.738;2024-03-29T05:26:33;4.97;;;1.35;;
74293;SDS011;64044;59.904;10.738;2024-03-29T05:28:59;5.10;;;1.35;;
74293;SDS011;64044;59.904;10.738;2024-03-29T05:31:25;2.60;;;1.35;;
74293;SDS011;64044;59.904;10.738;2024-03-29T05:33:52;5.20;;;1.67;;
74293;SDS011;64044;59.904;10.738;2024-03-29T05:36:17;4.32;;;1.35;;
74293;SDS011;64044;59.904;10.738;2024-03-29T05:38:44;3.50;;;1.25;;
74293;SDS011;64044;59.904;10.738;2024-03-29T05:41:10;4.05;;;1.38;;
74293;SDS011;64044;59.904;10.738;2024-03-29T05:43:35;6.82;;;1.30;;
74293;SDS011;64044;59.904;10.738;2024-03-29T05:46:01;7.25;;;1.50;;
74293;SDS011;64044;59.904;10.738;2024-03-29T05:50:57;1.63;;;1.08;;
74293;SDS011;64044;59.904;10.738;2024-03-29T05:53:22;3.85;;;1.45;;
74293;SDS011;64044;59.904;10.738;2024-03-29T05:55:49;4.28;;;1.48;;
74293;SDS011;64044;59.904;10.738;2024-03-29T05:58:15;4.38;;;1.80;;
74293;SDS011;64044;59.904;10.738;2024-03-29T06:00:45;3.35;;;1.30;;
74293;SDS011;64044;59.904;10.738;2024-03-29T06:03:11;4.82;;;1.30;;
74293;SDS011;64044;59.904;10.738;2024-03-29T06:05:39;6.53;;;1.40;;
74293;SDS011;64044;59.904;10.738;2024-03-29T06:08:06;6.68;;;1.77;;
74293;SDS011;64044;59.904;10.738;2024-03-29T06:10:32;10.02;;;1.73;;
74293;SDS011;64044;59.904;10.738;2024-03-29T06:12:58;6.18;;;2.00;;
74293;SDS011;64044;59.904;10.738;2024-03-29T06:15:32;4.97;;;1.77;;
74293;SDS011;64044;59.904;10.738;2024-03-29T06:18:16;8.50;;;2.38;;
74293;SDS011;64044;59.904;10.738;2024-03-29T06:20:43;8.30;;;2.50;;
74293;SDS011;64044;59.904;10.738;2024-03-29T06:23:10;7.63;;;2.50;;
74293;SDS011;64044;59.904;10.738;2024-03-29T06:25:35;6.03;;;2.40;;
74293;SDS011;64044;59.904;10.738;2024-03-29T06:28:01;4.43;;;1.90;;
74293;SDS011;64044;59.904;10.738;2024-03-29T06:30:27;5.80;;;1.77;;
74293;SDS011;64044;59.904;10.738;2024-03-29T06:32:52;6.90;;;1.98;;
74293;SDS011;64044;59.904;10.738;2024-03-29T06:35:18;6.15;;;1.65;;
74293;SDS011;64044;59.904;10.738;2024-03-29T06:37:47;8.90;;;2.00;;
74293;SDS011;64044;59.904;10.738;2024-03-29T06:40:12;2.78;;;1.60;;
74293;SDS011;64044;59.904;10.738;2024-03-29T06:42:38;6.20;;;1.40;;
74293;SDS011;64044;59.904;10.738;2024-03-29T06:45:04;3.83;;;1.35;;
74293;SDS011;64044;59.904;10.738;2024-03-29T06:47:30;2.22;;;1.27;;
74293;SDS011;64044;59.904;10.738;2024-03-29T06:49:56;3.00;;;1.23;;
74293;SDS011;64044;59.904;10.738;2024-03-29T06:52:22;1.70;;;1.17;;
74293;SDS011;64044;59.904;10.738;2024-03-29T06:54:48;1.60;;;1.10;;
74293;SDS011;64044;59.904;10.738;2024-03-29T06:57:13;1.27;;;0.98;;
74293;SDS011;64044;59.904;10.738;2024-03-29T06:59:42;3.80;;;1.10;;
74293;SDS011;64044;59.904;10.738;2024-03-29T07:02:33;2.65;;;1.15;;
74293;SDS011;64044;59.904;10.738;2024-03-29T07:04:59;1.95;;;1.00;;
74293;SDS011;64044;59.904;10.738;2024-03-29T07:07:30;1.17;;;0.90;;
74293;SDS011;64044;59.904;10.738;2024-03-29T07:09:56;3.65;;;1.02;;
74293;SDS011;64044;59.904;10.738;2024-03-29T07:12:22;1.80;;;1.10;;
74293;SDS011;64044;59.904;10.738;2024-03-29T07:14:47;1.55;;;1.15;;
74293;SDS011;64044;59.904;10.738;2024-03-29T07:17:13;1.27;;;0.90;;
74293;SDS011;64044;59.904;10.738;2024-03-29T07:19:38;1.48;;;1.10;;
74293;SDS011;64044;59.904;10.738;2024-03-29T07:22:04;3.15;;;1.50;;
74293;SDS011;64044;59.904;10.738;2024-03-29T07:24:30;2.20;;;1.20;;
74293;SDS011;64044;59.904;10.738;2024-03-29T07:27:04;2.42;;;1.23;;
74293;SDS011;64044;59.904;10.738;2024-03-29T07:29:30;1.92;;;1.63;;
74293;SDS011;64044;59.904;10.738;2024-03-29T07:31:59;2.30;;;1.10;;
74293;SDS011;64044;59.904;10.738;2024-03-29T07:34:25;1.85;;;0.90;;
74293;SDS011;64044;59.904;10.738;2024-03-29T07:36:51;3.85;;;1.52;;
74293;SDS011;64044;59.904;10.738;2024-03-29T07:39:16;3.30;;;1.90;;
74293;SDS011;64044;59.904;10.738;2024-03-29T07:41:42;2.72;;;1.60;;
74293;SDS011;64044;59.904;10.738;2024-03-29T07:44:08;3.95;;;1.80;;
74293;SDS011;64044;59.904;10.738;2024-03-29T07:46:34;3.30;;;1.95;;
74293;SDS011;64044;59.904;10.738;2024-03-29T07:49:01;3.47;;;1.50;;
74293;SDS011;64044;59.904;10.738;2024-03-29T07:51:28;2.03;;;1.30;;
74293;SDS011;64044;59.904;10.738;2024-03-29T07:53:54;4.40;;;1.60;;
74293;SDS011;64044;59.904;10.738;2024-03-29T07:56:20;2.58;;;1.65;;
74293;SDS011;64044;59.904;10.738;2024-03-29T07:58:49;1.67;;;1.33;;
74293;SDS011;64044;59.904;10.738;2024-03-29T08:01:19;2.55;;;1.20;;
74293;SDS011;64044;59.904;10.738;2024-03-29T08:03:51;2.75;;;1.25;;
74293;SDS011;64044;59.904;10.738;2024-03-29T08:06:20;1.30;;;1.20;;
74293;SDS011;64044;59.904;10.738;2024-03-29T08:08:48;1.80;;;1.27;;
74293;SDS011;64044;59.904;10.738;2024-03-29T08:11:14;1.38;;;1.00;;
74293;SDS011;64044;59.904;10.738;2024-03-29T08:13:40;3.55;;;1.23;;
74293;SDS011;64044;59.904;10.738;2024-03-29T08:16:06;3.60;;;1.15;;
74293;SDS011;64044;59.904;10.738;2024-03-29T08:18:32;2.15;;;1.27;;
74293;SDS011;64044;59.904;10.738;2024-03-29T08:21:01;1.50;;;1.40;;
74293;SDS011;64044;59.904;10.738;2024-03-29T08:23:28;3.83;;;1.95;;
74293;SDS011;64044;59.904;10.738;2024-03-29T08:25:54;4.25;;;1.27;;
74293;SDS011;64044;59.904;10.738;2024-03-29T08:28:24;3.25;;;1.52;;
74293;SDS011;64044;59.904;10.738;2024-03-29T08:31:10;2.63;;;1.00;;
74293;SDS011;64044;59.904;10.738;2024-03-29T08:33:36;0.95;;;0.70;;
74293;SDS011;64044;59.904;10.738;2024-03-29T08:36:05;1.83;;;0.90;;
74293;SDS011;64044;59.904;10.738;2024-03-29T08:38:31;1.10;;;0.70;;
74293;SDS011;64044;59.904;10.738;2024-03-29T08:40:57;0.70;;;0.45;;
74293;SDS011;64044;59.904;10.738;2024-03-29T08:43:23;0.75;;;0.43;;
74293;SDS011;64044;59.904;10.738;2024-03-29T08:45:49;0.70;;;0.70;;
74293;SDS011;64044;59.904;10.738;2024-03-29T08:48:14;0.60;;;0.60;;
74293;SDS011;64044;59.904;10.738;2024-03-29T08:50:40;0.68;;;0.40;;
74293;SDS011;64044;59.904;10.738;2024-03-29T08:53:06;2.28;;;0.50;;
74293;SDS011;64044;59.904;10.738;2024-03-29T08:55:33;1.10;;;0.55;;
74293;SDS011;64044;59.904;10.738;2024-03-29T08:57:59;0.70;;;0.47;;
74293;SDS011;64044;59.904;10.738;2024-03-29T09:00:26;0.30;;;0.30;;
74293;SDS011;64044;59.904;10.738;2024-03-29T09:02:53;1.17;;;0.30;;
74293;SDS011;64044;59.904;10.738;2024-03-29T09:05:19;0.68;;;0.25;;
74293;SDS011;64044;59.904;10.738;2024-03-29T09:07:45;0.40;;;0.30;;
74293;SDS011;64044;59.904;10.738;2024-03-29T09:10:11;1.75;;;0.20;;
74293;SDS011;64044;59.904;10.738;2024-03-29T09:12:39;0.25;;;0.25;;
74293;SDS011;64044;59.904;10.738;2024-03-29T09:15:05;1.15;;;0.55;;
74293;SDS011;64044;59.904;10.738;2024-03-29T09:17:34;0.20;;;0.20;;
74293;SDS011;64044;59.904;10.738;2024-03-29T09:20:00;1.55;;;0.30;;
74293;SDS011;64044;59.904;10.738;2024-03-29T09:22:26;0.95;;;0.32;;
74293;SDS011;64044;59.904;10.738;2024-03-29T09:24:51;1.25;;;0.43;;
74293;SDS011;64044;59.904;10.738;2024-03-29T09:27:17;0.93;;;0.50;;
74293;SDS011;64044;59.904;10.738;2024-03-29T09:29:43;0.85;;;0.40;;
74293;SDS011;64044;59.904;10.738;2024-03-29T09:32:13;1.38;;;0.47;;
74293;SDS011;64044;59.904;10.738;2024-03-29T09:34:42;1.00;;;0.73;;
74293;SDS011;64044;59.904;10.738;2024-03-29T09:37:09;1.25;;;0.68;;
74293;SDS011;64044;59.904;10.738;2024-03-29T09:39:35;0.55;;;0.35;;
74293;SDS011;64044;59.904;10.738;2024-03-29T09:42:01;1.55;;;0.70;;
74293;SDS011;64044;59.904;10.738;2024-03-29T09:44:31;2.63;;;0.68;;
74293;SDS011;64044;59.904;10.738;2024-03-29T09:47:04;1.52;;;0.65;;
74293;SDS011;64044;59.904;10.738;2024-03-29T09:49:31;1.90;;;0.93;;
74293;SDS011;64044;59.904;10.738;2024-03-29T09:52:01;0.73;;;0.60;;
74293;SDS011;64044;59.904;10.738;2024-03-29T09:54:28;1.25;;;0.70;;
74293;SDS011;64044;59.904;10.738;2024-03-29T09:56:57;1.98;;;0.70;;
74293;SDS011;64044;59.904;10.738;2024-03-29T09:59:23;0.43;;;0.40;;
74293;SDS011;64044;59.904;10.738;2024-03-29T10:01:51;1.98;;;0.60;;
74293;SDS011;64044;59.904;10.738;2024-03-29T10:04:20;2.17;;;0.50;;
74293;SDS011;64044;59.904;10.738;2024-03-29T10:06:49;1.95;;;0.77;;
74293;SDS011;64044;59.904;10.738;2024-03-29T10:09:17;1.75;;;0.75;;
74293;SDS011;64044;59.904;10.738;2024-03-29T10:11:43;0.77;;;0.77;;
74293;SDS011;64044;59.904;10.738;2024-03-29T10:14:10;3.10;;;1.10;;
74293;SDS011;64044;59.904;10.738;2024-03-29T10:16:35;3.83;;;1.00;;
74293;SDS011;64044;59.904;10.738;2024-03-29T10:19:01;2.47;;;1.00;;
74293;SDS011;64044;59.904;10.738;2024-03-29T10:21:28;1.45;;;1.05;;
74293;SDS011;64044;59.904;10.738;2024-03-29T10:23:54;2.05;;;1.33;;
74293;SDS011;64044;59.904;10.738;2024-03-29T10:26:20;3.47;;;1.23;;
74293;SDS011;64044;59.904;10.738;2024-03-29T10:28:50;4.30;;;1.15;;
74293;SDS011;64044;59.904;10.738;2024-03-29T10:31:16;2.35;;;1.30;;
74293;SDS011;64044;59.904;10.738;2024-03-29T10:33:43;4.05;;;1.27;;
74293;SDS011;64044;59.904;10.738;2024-03-29T10:36:09;2.92;;;1.42;;
74293;SDS011;64044;59.904;10.738;2024-03-29T10:38:37;5.50;;;1.50;;
74293;SDS011;64044;59.904;10.738;2024-03-29T10:41:04;3.75;;;1.30;;
74293;SDS011;64044;59.904;10.738;2024-03-29T10:43:32;2.53;;;1.40;;
74293;SDS011;64044;59.904;10.738;2024-03-29T10:45:59;5.30;;;1.48;;
74293;SDS011;64044;59.904;10.738;2024-03-29T10:48:26;3.83;;;1.50;;
74293;SDS011;64044;59.904;10.738;2024-03-29T10:50:53;2.85;;;1.52;;
74293;SDS011;64044;59.904;10.738;2024-03-29T10:53:20;5.40;;;2.22;;
74293;SDS011;64044;59.904;10.738;2024-03-29T10:55:52;5.07;;;1.75;;
74293;SDS011;64044;59.904;10.738;2024-03-29T10:58:21;8.95;;;2.50;;
74293;SDS011;64044;59.904;10.738;2024-03-29T11:00:52;6.57;;;2.40;;
74293;SDS011;64044;59.904;10.738;2024-03-29T11:06:28;13.02;;;2.72;;
74293;SDS011;64044;59.904;10.738;2024-03-29T11:08:56;5.57;;;2.20;;
74293;SDS011;64044;59.904;10.738;2024-03-29T11:11:24;8.30;;;2.67;;
74293;SDS011;64044;59.904;10.738;2024-03-29T11:14:01;12.10;;;3.10;;
74293;SDS011;64044;59.904;10.738;2024-03-29T11:16:31;16.40;;;3.83;;
74293;SDS011;64044;59.904;10.738;2024-03-29T11:18:58;17.70;;;4.45;;
74293;SDS011;64044;59.904;10.738;2024-03-29T11:21:26;15.93;;;4.60;;
74293;SDS011;64044;59.904;10.738;2024-03-29T11:23:53;18.75;;;4.72;;
74293;SDS011;64044;59.904;10.738;2024-03-29T11:26:20;16.27;;;4.22;;
74293;SDS011;64044;59.904;10.738;2024-03-29T11:28:49;21.33;;;4.13;;
74293;SDS011;64044;59.904;10.738;2024-03-29T11:31:16;14.23;;;4.03;;
74293;SDS011;64044;59.904;10.738;2024-03-29T11:36:13;19.23;;;4.15;;
74293;SDS011;64044;59.904;10.738;2024-03-29T11:38:39;18.02;;;5.10;;
74293;SDS011;64044;59.904;10.738;2024-03-29T11:43:52;16.48;;;4.32;;
74293;SDS011;64044;59.904;10.738;2024-03-29T11:46:18;12.40;;;4.10;;
74293;SDS011;64044;59.904;10.738;2024-03-29T11:48:44;24.13;;;5.65;;
74293;SDS011;64044;59.904;10.738;2024-03-29T11:51:18;15.23;;;3.60;;
74293;SDS011;64044;59.904;10.738;2024-03-29T11:53:51;12.88;;;4.38;;
74293;SDS011;64044;59.904;10.738;2024-03-29T11:56:17;17.05;;;3.97;;
74293;SDS011;64044;59.904;10.738;2024-03-29T11:58:43;11.95;;;3.47;;
74293;SDS011;64044;59.904;10.738;2024-03-29T12:01:09;8.48;;;3.17;;
74293;SDS011;64044;59.904;10.738;2024-03-29T12:03:38;11.70;;;3.47;;
74293;SDS011;64044;59.904;10.738;2024-03-29T12:06:05;13.73;;;4.05;;
74293;SDS011;64044;59.904;10.738;2024-03-29T12:08:32;13.25;;;3.63;;
74293;SDS011;64044;59.904;10.738;2024-03-29T12:10:59;12.13;;;3.60;;
74293;SDS011;64044;59.904;10.738;2024-03-29T12:13:25;9.52;;;3.95;;
74293;SDS011;64044;59.904;10.738;2024-03-29T12:15:51;14.15;;;3.83;;
74293;SDS011;64044;59.904;10.738;2024-03-29T12:18:18;11.93;;;3.58;;
74293;SDS011;64044;59.904;10.738;2024-03-29T12:20:45;13.68;;;3.95;;
74293;SDS011;64044;59.904;10.738;2024-03-29T12:23:14;14.38;;;3.80;;
74293;SDS011;64044;59.904;10.738;2024-03-29T12:25:41;12.90;;;3.72;;
74293;SDS011;64044;59.904;10.738;2024-03-29T12:28:08;18.75;;;4.15;;
74293;SDS011;64044;59.904;10.738;2024-03-29T12:30:35;15.75;;;5.35;;
74293;SDS011;64044;59.904;10.738;2024-03-29T12:33:03;17.65;;;4.05;;
74293;SDS011;64044;59.904;10.738;2024-03-29T12:35:31;19.30;;;4.75;;
74293;SDS011;64044;59.904;10.738;2024-03-29T12:37:58;19.50;;;6.22;;
74293;SDS011;64044;59.904;10.738;2024-03-29T12:40:26;16.20;;;5.50;;
74293;SDS011;64044;59.904;10.738;2024-03-29T12:42:53;17.42;;;5.13;;
74293;SDS011;64044;59.904;10.738;2024-03-29T12:45:19;14.93;;;4.68;;
74293;SDS011;64044;59.904;10.738;2024-03-29T12:47:45;16.30;;;4.60;;
74293;SDS011;64044;59.904;10.738;2024-03-29T12:52:53;16.23;;;4.90;;
74293;SDS011;64044;59.904;10.738;2024-03-29T12:55:21;14.70;;;4.75;;
74293;SDS011;64044;59.904;10.738;2024-03-29T12:57:48;14.02;;;4.75;;
74293;SDS011;64044;59.904;10.738;2024-03-29T13:00:14;15.57;;;4.88;;
74293;SDS011;64044;59.904;10.738;2024-03-29T13:02:40;15.98;;;4.20;;
74293;SDS011;64044;59.904;10.738;2024-03-29T13:05:06;13.80;;;4.75;;
74293;SDS011;64044;59.904;10.738;2024-03-29T13:07:32;9.05;;;4.07;;
74293;SDS011;64044;59.904;10.738;2024-03-29T13:10:01;11.50;;;3.70;;
74293;SDS011;64044;59.904;10.738;2024-03-29T13:12:48;12.75;;;3.83;;
74293;SDS011;64044;59.904;10.738;2024-03-29T13:17:47;7.40;;;3.17;;
74293;SDS011;64044;59.904;10.738;2024-03-29T13:20:14;12.68;;;3.42;;
74293;SDS011;64044;59.904;10.738;2024-03-29T13:22:41;8.32;;;2.67;;
74293;SDS011;64044;59.904;10.738;2024-03-29T13:25:09;11.07;;;3.03;;
74293;SDS011;64044;59.904;10.738;2024-03-29T13:27:36;11.60;;;3.60;;
74293;SDS011;64044;59.904;10.738;2024-03-29T13:30:05;9.35;;;3.05;;
74293;SDS011;64044;59.904;10.738;2024-03-29T13:32:34;11.45;;;2.97;;
74293;SDS011;64044;59.904;10.738;2024-03-29T13:35:00;9.10;;;3.13;;
74293;SDS011;64044;59.904;10.738;2024-03-29T13:37:26;7.47;;;3.05;;
74293;SDS011;64044;59.904;10.738;2024-03-29T13:39:55;8.32;;;2.67;;
74293;SDS011;64044;59.904;10.738;2024-03-29T13:42:21;6.60;;;2.78;;
74293;SDS011;64044;59.904;10.738;2024-03-29T13:44:50;8.15;;;2.67;;
74293;SDS011;64044;59.904;10.738;2024-03-29T13:47:17;5.50;;;2.15;;
74293;SDS011;64044;59.904;10.738;2024-03-29T13:49:43;7.00;;;2.65;;
74293;SDS011;64044;59.904;10.738;2024-03-29T13:52:09;7.68;;;2.95;;
74293;SDS011;64044;59.904;10.738;2024-03-29T13:54:35;8.15;;;2.97;;
74293;SDS011;64044;59.904;10.738;2024-03-29T13:57:01;10.18;;;3.00;;
74293;SDS011;64044;59.904;10.738;2024-03-29T13:59:29;7.68;;;3.15;;
74293;SDS011;64044;59.904;10.738;2024-03-29T14:01:55;9.20;;;3.42;;
74293;SDS011;64044;59.904;10.738;2024-03-29T14:04:21;12.38;;;3.05;;
74293;SDS011;64044;59.904;10.738;2024-03-29T14:06:47;20.95;;;7.47;;
74293;SDS011;64044;59.904;10.738;2024-03-29T14:12:05;13.38;;;3.65;;
74293;SDS011;64044;59.904;10.738;2024-03-29T14:14:31;9.77;;;3.70;;
74293;SDS011;64044;59.904;10.738;2024-03-29T14:16:57;12.27;;;2.85;;
74293;SDS011;64044;59.904;10.738;2024-03-29T14:19:23;10.43;;;3.17;;
74293;SDS011;64044;59.904;10.738;2024-03-29T14:21:49;8.18;;;2.55;;
74293;SDS011;64044;59.904;10.738;2024-03-29T14:24:15;7.47;;;3.45;;
74293;SDS011;64044;59.904;10.738;2024-03-29T14:26:42;11.43;;;3.53;;
74293;SDS011;64044;59.904;10.738;2024-03-29T14:29:08;9.88;;;2.72;;
74293;SDS011;64044;59.904;10.738;2024-03-29T14:31:36;12.63;;;3.58;;
74293;SDS011;64044;59.904;10.738;2024-03-29T14:34:02;8.15;;;2.80;;
74293;SDS011;64044;59.904;10.738;2024-03-29T14:36:28;12.85;;;3.03;;
74293;SDS011;64044;59.904;10.738;2024-03-29T14:38:57;14.07;;;4.50;;
74293;SDS011;64044;59.904;10.738;2024-03-29T14:41:25;11.95;;;2.97;;
74293;SDS011;64044;59.904;10.738;2024-03-29T14:43:52;13.13;;;3.80;;
74293;SDS011;64044;59.904;10.738;2024-03-29T14:46:18;12.57;;;4.00;;
74293;SDS011;64044;59.904;10.738;2024-03-29T14:48:46;17.20;;;4.18;;
74293;SDS011;64044;59.904;10.738;2024-03-29T14:51:12;17.50;;;4.05;;
74293;SDS011;64044;59.904;10.738;2024-03-29T14:53:37;16.80;;;4.35;;